Time;durP1;ratioP1;P1;durP2;ratioP2;P2;SDS_P1;SDS_P2;PMS_P1;PMS_P2;Temp;Humidity;BMP_temperature;BMP_pressure;BME280_temperature;BME280_humidity;BME280_pressure;Samples;Min_cycle;Max_cycle;Signal;HPM_P1;HPM_P2
2023/01/30 00:02:06;;;;;;;13.88;4.70;;;4.00;99.90;;;3.74;100.00;101443.91;5146051;28;20050;-66
2023/01/30 00:04:38;;;;;;;12.18;4.55;;;4.00;99.90;;;3.78;100.00;101463.06;5160374;28;20055;-66
2023/01/30 00:07:11;;;;;;;12.23;4.60;;;4.00;99.90;;;3.79;100.00;101452.88;5145961;28;20047;-67
2023/01/30 00:09:45;;;;;;;11.00;4.57;;;4.00;99.90;;;3.82;100.00;101462.53;5145756;28;20051;-66
2023/01/30 00:12:19;;;;;;;12.23;4.55;;;4.10;99.90;;;3.83;100.00;101454.00;5143586;28;20054;-66
2023/01/30 00:14:51;;;;;;;11.57;4.53;;;4.10;99.90;;;3.84;100.00;101445.47;5144062;28;20042;-67
2023/01/30 00:17:23;;;;;;;11.00;4.10;;;4.10;99.90;;;3.86;100.00;101438.75;5145928;28;20078;-67
2023/01/30 00:19:56;;;;;;;12.05;4.70;;;4.10;99.90;;;3.87;100.00;101425.06;5145016;28;20053;-67
2023/01/30 00:22:29;;;;;;;14.35;4.72;;;4.10;99.90;;;3.87;100.00;101413.84;5145233;28;20054;-66
2023/01/30 00:25:01;;;;;;;11.35;3.80;;;4.10;99.90;;;3.88;100.00;101413.06;5145050;28;20035;-66
2023/01/30 00:27:35;;;;;;;10.45;4.18;;;4.20;99.90;;;3.88;100.00;101411.38;5144711;28;20496;-66
2023/01/30 00:30:10;;;;;;;10.70;4.10;;;4.20;99.90;;;3.91;100.00;101411.59;5145478;28;20161;-67
2023/01/30 00:32:42;;;;;;;13.60;4.80;;;4.10;99.90;;;3.93;100.00;101403.97;5145383;28;20057;-67
2023/01/30 00:35:14;;;;;;;12.02;4.38;;;4.20;99.90;;;3.93;100.00;101410.03;5143991;28;20094;-67
2023/01/30 00:37:46;;;;;;;10.45;4.03;;;4.20;99.90;;;3.93;100.00;101399.69;5145687;28;20047;-67
2023/01/30 00:40:20;;;;;;;8.95;3.40;;;4.20;99.90;;;3.93;100.00;101394.53;5143583;28;20086;-67
2023/01/30 00:48:35;;;;;;;9.52;3.58;;;4.20;99.90;;;4.01;100.00;101392.50;5145631;28;20522;-67
2023/01/30 00:51:08;;;;;;;9.05;3.42;;;4.30;99.90;;;4.02;100.00;101390.03;5159872;28;20057;-66
2023/01/30 00:53:40;;;;;;;8.43;3.05;;;4.30;99.90;;;4.03;100.00;101376.31;5145575;28;20078;-66
2023/01/30 00:56:12;;;;;;;7.93;3.00;;;4.30;99.90;;;4.03;100.00;101386.66;5145177;28;20047;-66
2023/01/30 00:58:45;;;;;;;8.15;2.95;;;4.30;99.90;;;4.07;100.00;101380.94;5143487;28;20058;-67
2023/01/30 01:01:18;;;;;;;7.97;3.20;;;4.30;99.90;;;4.08;100.00;101369.81;5159435;28;20117;-67
2023/01/30 01:03:50;;;;;;;8.88;3.10;;;4.30;99.90;;;4.11;100.00;101371.72;5143722;28;20055;-67
2023/01/30 01:06:22;;;;;;;9.30;3.88;;;4.40;99.90;;;4.14;100.00;101371.03;5143658;28;20057;-67
2023/01/30 01:08:54;;;;;;;7.20;3.17;;;4.40;99.90;;;4.15;100.00;101370.25;5142944;28;20043;-67
2023/01/30 01:11:26;;;;;;;10.30;3.60;;;4.40;99.90;;;4.16;100.00;101352.28;5144525;28;20046;-67
2023/01/30 01:14:03;;;;;;;7.53;3.58;;;4.40;99.90;;;4.21;100.00;101339.69;5144636;28;20492;-68
2023/01/30 01:16:37;;;;;;;9.57;3.58;;;4.40;99.90;;;4.21;100.00;101347.44;5144730;28;20049;-67
2023/01/30 01:19:09;;;;;;;7.03;2.78;;;4.40;99.90;;;4.23;100.00;101343.28;5159388;28;20059;-67
2023/01/30 01:21:42;;;;;;;8.40;3.30;;;4.50;99.90;;;4.25;100.00;101339.13;5143333;28;20057;-67
2023/01/30 01:24:16;;;;;;;6.70;2.95;;;4.50;99.90;;;4.26;100.00;101361.56;5145089;28;20128;-67
2023/01/30 01:26:48;;;;;;;6.90;2.95;;;4.50;99.90;;;4.27;100.00;101365.94;5144710;28;20045;-67
2023/01/30 01:29:23;;;;;;;7.97;2.83;;;4.50;99.90;;;4.29;100.00;101359.19;5144059;28;20113;-68
2023/01/30 01:31:58;;;;;;;8.40;3.42;;;4.50;99.90;;;4.32;100.00;101349.09;5159048;28;20051;-67
2023/01/30 01:34:30;;;;;;;9.13;3.22;;;4.50;99.90;;;4.32;100.00;101343.91;5159028;28;20062;-67
2023/01/30 01:37:02;;;;;;;6.72;2.80;;;4.50;99.90;;;4.33;100.00;101348.28;5144366;28;20419;-67
2023/01/30 01:42:20;;;;;;;7.45;2.63;;;4.60;99.90;;;4.36;100.00;101340.75;5144182;28;20062;-66
2023/01/30 01:45:04;;;;;;;9.57;3.58;;;4.60;99.90;;;4.38;100.00;101328.84;5143189;28;20146;-67
2023/01/30 01:47:37;;;;;;;7.68;3.05;;;4.60;99.90;;;4.39;100.00;101329.75;5144950;28;20046;-67
2023/01/30 01:50:16;;;;;;;7.20;3.38;;;4.60;99.90;;;4.40;100.00;101336.69;5158791;28;20471;-67
2023/01/30 01:52:53;;;;;;;6.63;2.88;;;4.60;99.90;;;4.41;100.00;101323.00;5158716;28;20043;-67
2023/01/30 01:55:29;;;;;;;6.95;2.83;;;4.60;99.90;;;4.42;100.00;101320.50;5159075;28;20053;-68
2023/01/30 01:58:08;;;;;;;7.20;2.95;;;4.70;99.90;;;4.45;100.00;101319.84;5144244;28;20202;-67
2023/01/30 02:00:41;;;;;;;7.18;3.17;;;4.60;99.90;;;4.45;100.00;101319.84;5158294;28;20137;-68
2023/01/30 02:03:20;;;;;;;8.00;3.22;;;4.70;99.90;;;4.48;100.00;101317.44;5158924;28;20051;-67
2023/01/30 02:05:58;;;;;;;7.93;3.80;;;4.70;99.90;;;4.49;100.00;101312.38;5144465;28;20127;-67
2023/01/30 02:08:34;;;;;;;7.22;2.90;;;4.70;99.90;;;4.49;100.00;101320.13;5143860;28;20046;-67
2023/01/30 02:11:13;;;;;;;8.15;3.20;;;4.70;99.90;;;4.51;100.00;101305.66;5142445;28;20053;-67
2023/01/30 02:13:46;;;;;;;8.27;3.65;;;4.70;99.90;;;4.51;100.00;101295.31;5143824;28;20074;-67
2023/01/30 02:16:21;;;;;;;6.90;2.70;;;4.80;99.90;;;4.51;100.00;101305.66;5158792;28;20517;-69
2023/01/30 02:18:54;;;;;;;7.72;2.88;;;4.70;99.90;;;4.53;100.00;101303.16;5142979;28;20082;-67
2023/01/30 02:22:08;;;;;;;7.22;2.80;;;4.70;99.90;;;4.56;100.00;101293.94;5158414;28;20154;-67
2023/01/30 02:25:21;;;;;;;6.88;2.85;;;4.80;99.90;;;4.60;100.00;101277.84;5142993;28;20050;-67
2023/01/30 02:28:40;;;;;;;8.10;3.28;;;4.80;99.90;;;4.61;100.00;101279.63;5143866;28;20406;-67
2023/01/30 02:31:29;;;;;;;7.70;3.47;;;4.80;99.90;;;4.63;100.00;101264.25;5158261;28;20051;-67
2023/01/30 02:34:18;;;;;;;6.97;3.33;;;4.90;99.90;;;4.65;100.00;101266.94;5141880;28;20065;-67
2023/01/30 02:37:02;;;;;;;5.43;2.75;;;4.90;99.90;;;4.66;100.00;101253.22;5158313;28;20055;-67
2023/01/30 02:39:47;;;;;;;6.53;2.95;;;4.90;99.90;;;4.69;100.00;101250.84;5141182;28;20043;-67
2023/01/30 02:42:27;;;;;;;9.43;2.90;;;4.90;99.90;;;4.72;100.00;101253.63;5142489;28;20050;-67
2023/01/30 02:45:07;;;;;;;10.00;3.45;;;4.90;99.90;;;4.74;100.00;101252.03;5143665;28;20113;-67
2023/01/30 02:47:47;;;;;;;6.22;3.00;;;5.00;99.90;;;4.76;100.00;101240.09;5144831;28;20031;-67
2023/01/30 02:50:25;;;;;;;7.70;3.38;;;5.00;99.90;;;4.79;100.00;101230.00;5159056;28;20047;-67
2023/01/30 02:52:59;;;;;;;6.00;2.53;;;5.00;99.90;;;4.80;100.00;101224.03;5143930;28;20060;-67
2023/01/30 02:55:32;;;;;;;6.40;2.60;;;5.00;99.90;;;4.82;100.00;101225.00;5144327;28;20351;-67
2023/01/30 02:58:05;;;;;;;5.93;2.60;;;5.00;99.90;;;4.83;100.00;101226.81;5143534;28;20105;-67
2023/01/30 03:01:10;;;;;;;5.78;2.75;;;5.10;99.90;;;4.85;100.00;101218.38;5144405;28;20042;-67
2023/01/30 03:04:06;;;;;;;5.82;2.55;;;5.10;99.90;;;4.88;100.00;101230.56;5159979;28;20047;-66
2023/01/30 03:07:02;;;;;;;6.13;2.53;;;5.10;99.90;;;4.91;100.00;101217.88;5157532;28;20097;-66
2023/01/30 03:09:45;;;;;;;6.28;2.58;;;5.10;99.90;;;4.94;100.00;101207.72;5141279;28;20047;-67
2023/01/30 03:12:25;;;;;;;6.10;2.60;;;5.10;99.90;;;4.95;100.00;101206.91;5157643;28;20055;-67
2023/01/30 03:15:04;;;;;;;6.38;3.10;;;5.20;99.90;;;4.97;100.00;101205.34;5157842;28;20051;-67
2023/01/30 03:17:38;;;;;;;6.38;2.88;;;5.20;99.90;;;4.99;100.00;101197.69;5157882;28;20439;-67
2023/01/30 03:20:14;;;;;;;7.85;2.97;;;5.20;99.90;;;5.02;100.00;101192.69;5143827;28;20420;-67
2023/01/30 03:22:46;;;;;;;7.20;2.85;;;5.20;99.90;;;5.02;100.00;101191.03;5122196;29;20467;-67
2023/01/30 03:25:22;;;;;;;6.75;3.10;;;5.20;99.90;;;5.04;100.00;101186.84;5138472;28;20055;-66
2023/01/30 03:27:56;;;;;;;6.40;3.05;;;5.20;99.90;;;5.07;100.00;101184.44;5137917;28;20054;-67
2023/01/30 03:30:29;;;;;;;8.50;3.28;;;5.30;99.90;;;5.10;100.00;101182.06;5137634;28;20044;-67
2023/01/30 03:33:11;;;;;;;7.88;3.10;;;5.30;99.90;;;5.15;100.00;101178.09;5124460;28;20157;-67
2023/01/30 03:35:46;;;;;;;7.93;2.85;;;5.40;99.90;;;5.21;100.00;101174.06;5125706;29;20126;-67
2023/01/30 03:38:19;;;;;;;8.43;3.55;;;5.40;99.90;;;5.23;100.00;101168.22;5141620;28;20050;-67
2023/01/30 03:40:56;;;;;;;9.43;3.13;;;5.40;99.90;;;5.25;100.00;101166.59;5126698;28;20133;-67
2023/01/30 03:43:28;;;;;;;7.75;3.58;;;5.40;99.90;;;5.28;100.00;101161.66;5127390;28;20043;-66
2023/01/30 03:46:00;;;;;;;11.15;4.03;;;5.40;99.90;;;5.32;100.00;101167.88;5141664;28;20055;-67
2023/01/30 03:48:33;;;;;;;12.75;3.72;;;5.50;99.90;;;5.34;100.00;101153.34;5141413;28;20070;-67
2023/01/30 03:51:07;;;;;;;9.10;3.55;;;5.50;99.90;;;5.38;100.00;101147.56;5141202;28;20512;-67
2023/01/30 03:53:39;;;;;;;7.88;3.22;;;5.50;99.90;;;5.39;100.00;101133.84;5141435;28;20137;-67
2023/01/30 03:56:11;;;;;;;8.32;3.22;;;5.60;99.90;;;5.43;100.00;101141.00;5141284;28;20074;-68
2023/01/30 03:58:44;;;;;;;9.52;3.58;;;5.60;99.90;;;5.45;100.00;101132.53;5124628;28;20420;-67
2023/01/30 04:01:25;;;;;;;7.43;2.97;;;5.60;99.90;;;5.46;100.00;101130.81;5141044;28;20524;-67
2023/01/30 04:03:57;;;;;;;9.15;3.35;;;5.70;99.90;;;5.48;100.00;101129.25;5140868;28;20142;-67
2023/01/30 04:06:32;;;;;;;7.22;3.08;;;5.70;99.90;;;5.52;100.00;101131.19;5140870;28;20047;-67
2023/01/30 04:09:05;;;;;;;7.65;3.42;;;5.70;99.90;;;5.52;100.00;101118.28;5125644;28;20055;-68
2023/01/30 04:11:57;;;;;;;7.65;3.38;;;5.70;99.90;;;5.51;100.00;101113.91;5140753;28;20110;-68
2023/01/30 04:14:32;;;;;;;6.13;3.17;;;5.70;99.90;;;5.54;100.00;101106.34;5124523;29;20051;-67
2023/01/30 04:17:30;;;;;;;6.93;3.22;;;5.70;99.90;;;5.57;100.00;101103.94;5124448;28;20078;-67
2023/01/30 04:20:14;;;;;;;7.35;3.33;;;5.80;99.90;;;5.58;100.00;101108.28;5125497;29;20047;-67
2023/01/30 04:22:54;;;;;;;7.80;3.00;;;5.80;99.90;;;5.60;100.00;101104.09;5125869;28;20070;-65
2023/01/30 04:25:28;;;;;;;8.35;3.67;;;5.80;99.90;;;5.63;100.00;101109.47;5125667;28;20492;-66
2023/01/30 04:28:01;;;;;;;6.03;2.70;;;5.80;99.90;;;5.64;100.00;101105.19;5140146;28;20109;-66
2023/01/30 04:30:39;;;;;;;5.13;2.78;;;5.80;99.90;;;5.65;100.00;101094.03;5140077;28;20047;-66
2023/01/30 04:33:31;;;;;;;6.18;3.05;;;5.80;99.90;;;5.66;100.00;101094.13;5125770;29;20062;-68
2023/01/30 04:36:06;;;;;;;6.88;2.92;;;5.80;99.90;;;5.68;100.00;101087.34;5140217;28;20050;-67
2023/01/30 04:38:40;;;;;;;6.35;3.00;;;5.80;99.90;;;5.69;100.00;101083.97;5140049;28;20428;-67
2023/01/30 04:41:13;;;;;;;7.93;3.10;;;5.90;99.90;;;5.71;100.00;101082.34;5140603;28;20410;-68
2023/01/30 04:43:47;;;;;;;6.45;3.25;;;5.90;99.90;;;5.73;100.00;101085.00;5139970;28;20098;-67
2023/01/30 04:46:29;;;;;;;8.82;3.75;;;5.90;99.90;;;5.76;100.00;101099.84;5125402;28;20130;-67
2023/01/30 04:49:02;;;;;;;7.63;3.03;;;5.90;99.90;;;5.75;100.00;101098.06;5123426;29;20150;-67
2023/01/30 04:51:34;;;;;;;7.85;3.58;;;5.90;99.90;;;5.78;100.00;101093.94;5124000;29;20416;-67
2023/01/30 04:54:07;;;;;;;8.10;3.20;;;5.90;99.90;;;5.79;100.00;101094.84;5123636;29;20049;-67
2023/01/30 04:56:39;;;;;;;5.78;2.83;;;5.90;99.90;;;5.78;100.00;101088.78;5139776;28;20497;-68
2023/01/30 04:59:12;;;;;;;9.20;3.75;;;6.00;99.90;;;5.83;100.00;101096.81;5139347;28;20068;-67
2023/01/30 05:01:49;;;;;;;9.13;3.53;;;6.00;99.90;;;5.84;100.00;101093.41;5139814;28;20123;-67
2023/01/30 05:04:21;;;;;;;8.32;3.47;;;6.00;99.90;;;5.84;100.00;101089.13;5124917;29;20423;-67
2023/01/30 05:06:53;;;;;;;7.50;3.55;;;6.00;99.90;;;5.86;100.00;101084.94;5124679;28;20130;-67
2023/01/30 05:09:27;;;;;;;7.43;3.08;;;6.10;99.90;;;5.89;100.00;101079.06;5124266;29;20077;-67
2023/01/30 05:11:59;;;;;;;7.25;3.13;;;6.10;99.90;;;5.91;100.00;101074.88;5124941;28;20073;-67
2023/01/30 05:14:31;;;;;;;8.10;3.45;;;6.10;99.90;;;5.95;100.00;101074.28;5124484;29;20083;-67
2023/01/30 05:17:03;;;;;;;9.88;3.78;;;6.10;99.90;;;5.96;100.00;101057.94;5124397;29;20134;-67
2023/01/30 05:19:36;;;;;;;8.45;3.45;;;6.10;99.90;;;5.97;100.00;101064.91;5124095;29;20050;-67
2023/01/30 05:22:08;;;;;;;8.70;3.28;;;6.20;99.90;;;5.96;100.00;101053.66;5139824;28;20051;-64
2023/01/30 05:24:41;;;;;;;11.02;4.40;;;6.20;99.90;;;6.03;100.00;101054.00;5124470;29;20071;-67
2023/01/30 05:27:13;;;;;;;9.38;4.10;;;6.20;99.90;;;6.01;100.00;101051.34;5124243;29;20086;-67
2023/01/30 05:29:46;;;;;;;11.80;4.07;;;6.20;99.90;;;6.03;100.00;101049.72;5123932;29;20043;-64
2023/01/30 05:32:20;;;;;;;11.32;4.43;;;6.20;99.90;;;6.05;100.00;101053.28;5125742;28;20051;-64
2023/01/30 05:34:52;;;;;;;9.98;4.57;;;6.30;99.90;;;6.03;100.00;101060.06;5138956;28;20051;-64
2023/01/30 05:37:24;;;;;;;10.35;4.57;;;6.20;99.90;;;6.04;100.00;101046.31;5148925;23;20039;-71
2023/01/30 05:39:58;;;;;;;11.23;4.25;;;6.20;99.90;;;6.02;100.00;101047.94;5108460;29;20059;-71
2023/01/30 05:42:31;;;;;;;14.27;4.95;;;6.20;99.90;;;6.02;100.00;101036.69;5104438;29;20046;-71
2023/01/30 05:45:04;;;;;;;11.68;5.00;;;6.20;99.90;;;5.98;100.00;101043.38;5104058;29;20467;-71
2023/01/30 05:47:36;;;;;;;11.00;4.82;;;6.20;99.90;;;5.99;100.00;101040.88;5119104;29;20256;-71
2023/01/30 05:50:11;;;;;;;12.75;5.47;;;6.20;99.90;;;5.99;100.00;101037.41;5104067;29;20047;-71
2023/01/30 05:52:43;;;;;;;12.38;5.28;;;6.20;99.90;;;5.97;100.00;101049.38;5108094;29;20403;-72
2023/01/30 05:55:17;;;;;;;13.25;4.90;;;6.20;99.90;;;5.93;100.00;101045.72;5103332;29;20419;-71
2023/01/30 05:57:49;;;;;;;10.20;4.50;;;6.20;99.90;;;5.94;100.00;101041.44;5118502;28;20055;-71
2023/01/30 06:00:22;;;;;;;12.27;5.07;;;6.20;99.90;;;5.90;100.00;101042.91;5103660;29;20040;-72
2023/01/30 06:02:54;;;;;;;11.90;4.70;;;6.10;99.90;;;5.90;100.00;101047.19;5118830;29;20051;-71
2023/01/30 06:05:26;;;;;;;10.93;4.72;;;6.10;99.90;;;5.90;100.00;101047.19;5104029;29;20062;-71
2023/01/30 06:07:58;;;;;;;11.68;5.22;;;6.10;99.90;;;5.91;100.00;101055.09;5103692;29;20412;-71
2023/01/30 06:10:34;;;;;;;11.75;3.95;;;6.10;99.90;;;5.93;100.00;101042.22;5103687;29;20055;-71
2023/01/30 06:13:09;;;;;;;10.10;4.32;;;6.10;99.90;;;5.93;100.00;101052.56;5103690;29;20051;-71
2023/01/30 06:15:43;;;;;;;9.30;3.80;;;6.10;99.90;;;5.90;100.00;101047.19;5103886;29;20528;-71
2023/01/30 06:18:16;;;;;;;11.52;4.50;;;6.10;99.90;;;5.89;100.00;101032.50;5118577;28;20268;-71
2023/01/30 06:20:49;;;;;;;8.15;3.95;;;6.10;99.90;;;5.89;100.00;101048.00;5102116;29;20048;-71
2023/01/30 06:23:23;;;;;;;7.07;3.05;;;6.10;99.90;;;5.90;100.00;101034.25;5103646;29;20390;-71
2023/01/30 06:25:58;;;;;;;7.88;3.17;;;6.10;99.90;;;5.90;100.00;101058.44;5103579;29;20103;-72
2023/01/30 06:28:30;;;;;;;6.82;2.75;;;6.10;99.90;;;5.91;100.00;101059.38;5103382;29;20404;-71
2023/01/30 06:31:02;;;;;;;6.75;3.65;;;6.10;99.90;;;5.92;100.00;101049.09;5103261;29;20048;-71
2023/01/30 06:33:34;;;;;;;6.43;3.00;;;6.10;99.90;;;5.91;100.00;101060.25;5103665;29;20048;-72
2023/01/30 06:36:08;;;;;;;5.47;2.70;;;6.10;99.90;;;6.03;100.00;101054.00;5103183;29;20059;-71
2023/01/30 06:38:40;;;;;;;7.57;2.92;;;6.20;99.90;;;6.07;100.00;101067.22;5102047;29;20074;-71
2023/01/30 06:41:13;;;;;;;6.18;3.05;;;6.20;99.90;;;6.05;100.00;101073.09;5103226;29;20048;-71
2023/01/30 06:43:46;;;;;;;6.47;2.72;;;6.20;99.90;;;6.10;100.00;101067.38;5103644;29;20050;-71
2023/01/30 06:46:18;;;;;;;6.55;2.50;;;6.30;99.90;;;6.09;100.00;101067.31;5103298;29;20049;-71
2023/01/30 06:48:50;;;;;;;4.35;2.33;;;6.30;99.90;;;6.10;100.00;101061.31;5103124;29;20043;-71
2023/01/30 06:51:26;;;;;;;4.97;2.40;;;6.30;99.90;;;6.10;100.00;101069.97;5103675;29;20056;-71
2023/01/30 06:53:59;;;;;;;4.15;2.15;;;6.30;99.90;;;6.09;100.00;101068.19;5102139;29;20055;-71
2023/01/30 06:56:33;;;;;;;5.25;1.65;;;6.30;99.90;;;6.08;100.00;101063.81;5103469;29;20048;-71
2023/01/30 06:59:05;;;;;;;4.65;2.03;;;6.30;99.90;;;6.09;100.00;101069.88;5103236;29;20050;-71
2023/01/30 07:01:38;;;;;;;4.57;2.22;;;6.30;99.90;;;6.09;100.00;101069.88;5103677;29;20052;-71
2023/01/30 07:04:10;;;;;;;2.65;1.65;;;6.30;99.90;;;6.09;100.00;101075.94;5103035;29;20048;-54
2023/01/30 07:06:42;;;;;;;5.95;2.40;;;6.30;99.90;;;6.09;100.00;101075.94;5103526;29;20413;-55
2023/01/30 07:09:15;;;;;;;5.80;2.80;;;6.30;99.90;;;6.10;100.00;101072.56;5107242;29;20044;-55
2023/01/30 07:11:49;;;;;;;5.28;2.30;;;6.30;99.90;;;6.13;100.00;101098.63;5107158;29;20067;-56
2023/01/30 07:14:21;;;;;;;4.38;2.20;;;6.30;99.90;;;6.12;100.00;101095.94;5106836;29;20075;-56
2023/01/30 07:16:54;;;;;;;4.95;2.45;;;6.30;99.90;;;6.16;100.00;101111.72;5106899;29;20039;-55
2023/01/30 07:19:26;;;;;;;5.07;2.47;;;6.40;99.90;;;6.19;100.00;101083.44;5106792;29;20052;-55
2023/01/30 07:21:59;;;;;;;5.68;2.30;;;6.40;99.90;;;6.19;100.00;101100.66;5106790;29;20055;-55
2023/01/30 07:24:31;;;;;;;5.22;2.42;;;6.40;99.90;;;6.20;100.00;101105.94;5106781;29;20498;-55
2023/01/30 07:27:06;;;;;;;6.32;2.88;;;6.40;99.90;;;6.22;100.00;101093.97;5106529;29;20036;-55
2023/01/30 07:29:42;;;;;;;5.50;2.60;;;6.40;99.90;;;6.21;100.00;101101.66;5106730;29;20051;-55
2023/01/30 07:32:18;;;;;;;4.10;2.38;;;6.40;99.90;;;6.18;100.00;101112.69;5106889;29;20496;-55
2023/01/30 07:34:50;;;;;;;5.68;2.70;;;6.40;99.90;;;6.13;100.00;101089.94;5106652;29;20074;-55
2023/01/30 07:37:23;;;;;;;4.90;2.67;;;6.30;99.90;;;6.11;100.00;101095.03;5106273;29;20051;-55
2023/01/30 07:39:55;;;;;;;6.93;2.90;;;6.40;99.90;;;6.10;100.00;101093.25;5106447;29;20055;-55
2023/01/30 07:42:28;;;;;;;4.25;2.28;;;6.30;99.90;;;6.08;100.00;101094.88;5106101;29;20064;-56
2023/01/30 07:45:01;;;;;;;5.53;2.40;;;6.30;99.90;;;6.08;100.00;101099.16;5106152;29;20055;-56
2023/01/30 07:47:36;;;;;;;2.67;1.80;;;6.30;99.90;;;6.07;100.00;101100.88;5106453;29;20147;-57
2023/01/30 07:50:10;;;;;;;3.75;2.03;;;6.30;99.90;;;6.09;100.00;101095.78;5105255;29;20056;-52
2023/01/30 07:52:42;;;;;;;3.50;2.03;;;6.30;99.90;;;6.11;100.00;101118.34;5106667;29;20052;-52
2023/01/30 07:55:15;;;;;;;3.42;2.08;;;6.30;99.90;;;6.12;100.00;101125.28;5106370;29;20055;-51
2023/01/30 07:57:48;;;;;;;4.22;1.92;;;6.30;99.90;;;6.12;100.00;101107.19;5106048;29;20134;-51
2023/01/30 08:00:21;;;;;;;4.03;2.13;;;6.30;99.90;;;6.15;100.00;101116.84;5106135;29;20063;-53
2023/01/30 08:02:53;;;;;;;5.35;2.30;;;6.40;99.90;;;6.13;100.00;101114.16;5106064;29;20501;-52
2023/01/30 08:05:26;;;;;;;5.32;1.85;;;6.30;99.90;;;6.14;100.00;101121.13;5106255;29;20428;-51
2023/01/30 08:07:59;;;;;;;3.90;2.00;;;6.30;99.90;;;6.14;100.00;101125.41;5105880;29;20047;-52
2023/01/30 08:10:31;;;;;;;5.20;2.33;;;6.30;99.90;;;6.16;100.00;101123.78;5105779;29;20075;-51
2023/01/30 08:13:05;;;;;;;5.93;3.17;;;6.30;99.90;;;6.13;100.00;101119.34;5105785;29;20413;-52
2023/01/30 08:15:40;;;;;;;7.47;2.75;;;6.30;99.90;;;6.15;100.00;101116.84;5106073;29;20489;-54
2023/01/30 08:18:12;;;;;;;3.50;1.98;;;6.30;99.90;;;6.14;100.00;101121.13;5105326;28;20048;-52
2023/01/30 08:20:45;;;;;;;5.03;2.42;;;6.40;99.90;;;6.14;100.00;101115.94;5105724;29;20075;-52
2023/01/30 08:23:17;;;;;;;5.18;2.40;;;6.30;99.90;;;6.15;100.00;101122.91;5105537;29;20052;-52
2023/01/30 08:25:49;;;;;;;5.35;2.50;;;6.30;99.90;;;6.16;100.00;101116.03;5105716;29;20040;-51
2023/01/30 08:28:22;;;;;;;5.25;2.60;;;6.30;99.90;;;6.16;100.00;101116.91;5105497;29;20048;-52
2023/01/30 08:30:55;;;;;;;5.78;2.20;;;6.40;99.90;;;6.91;100.00;101120.22;5105359;29;20054;-55
2023/01/30 08:33:28;;;;;;;9.00;4.10;;;7.20;99.90;;;7.29;100.00;101115.38;5105743;29;20420;-55
2023/01/30 08:36:00;;;;;;;8.38;3.30;;;7.50;99.90;;;7.20;100.00;101109.72;5105588;29;20046;-56
2023/01/30 08:38:32;;;;;;;8.13;2.97;;;7.50;99.90;;;7.30;100.00;101111.09;5105140;29;20055;-52
2023/01/30 08:41:06;;;;;;;8.68;3.95;;;7.70;99.90;;;7.34;100.00;101123.41;5105845;29;20051;-51
2023/01/30 08:43:46;;;;;;;8.52;4.10;;;7.70;99.90;;;7.22;100.00;101123.66;5105565;29;20134;-52
2023/01/30 08:46:19;;;;;;;7.32;3.78;;;7.60;99.90;;;7.10;100.00;101128.19;5105184;29;20412;-52
2023/01/30 08:48:53;;;;;;;9.48;4.63;;;7.50;99.90;;;7.03;100.00;101118.28;5105159;29;20130;-52
2023/01/30 08:51:25;;;;;;;9.63;4.57;;;7.30;99.90;;;6.99;100.00;101134.50;5105081;29;20056;-53
2023/01/30 08:53:58;;;;;;;10.02;4.90;;;7.20;99.90;;;6.94;100.00;101143.72;5105412;29;20425;-52
2023/01/30 08:56:30;;;;;;;12.13;5.43;;;7.20;99.90;;;6.91;100.00;101139.28;5104949;29;20040;-52
2023/01/30 08:59:04;;;;;;;10.48;4.93;;;7.10;99.90;;;6.86;100.00;101140.72;5104950;29;20048;-53
2023/01/30 09:01:36;;;;;;;11.95;4.53;;;7.10;99.90;;;6.85;100.00;101125.97;5105178;29;20509;-52
2023/01/30 09:04:09;;;;;;;8.95;4.50;;;7.10;99.90;;;6.82;100.00;101135.28;5104921;29;20134;-53
2023/01/30 09:06:41;;;;;;;13.43;4.28;;;7.10;99.90;;;6.85;100.00;101131.16;5105255;29;20039;-53
2023/01/30 09:09:13;;;;;;;11.20;4.05;;;7.10;99.90;;;6.94;100.00;101120.41;5104142;29;20077;-52
2023/01/30 09:11:46;;;;;;;7.38;3.72;;;7.10;99.90;;;7.03;100.00;101132.13;5105438;29;20054;-52
2023/01/30 09:14:20;;;;;;;10.82;4.40;;;7.20;99.90;;;7.18;100.00;101134.69;5105307;29;20043;-53
2023/01/30 09:16:54;;;;;;;8.32;4.10;;;7.30;99.90;;;7.29;100.00;101143.03;5105136;29;20079;-51
2023/01/30 09:19:28;;;;;;;11.55;4.38;;;7.40;99.90;;;7.41;100.00;101140.19;5105439;29;20044;-53
2023/01/30 09:22:00;;;;;;;10.18;4.25;;;7.60;99.90;;;7.56;100.00;101143.59;5105020;29;20040;-53
2023/01/30 09:24:32;;;;;;;8.30;3.35;;;7.70;99.90;;;7.67;100.00;101149.34;5104943;29;20087;-53
2023/01/30 09:27:04;;;;;;;6.47;2.92;;;7.80;99.90;;;7.74;100.00;101161.81;5105138;29;20047;-52
2023/01/30 09:29:38;;;;;;;11.75;3.63;;;7.90;99.90;;;7.94;100.00;101155.06;5118707;28;20116;-53
2023/01/30 09:32:10;;;;;;;9.82;3.03;;;8.10;99.90;;;8.02;100.00;101164.13;5105218;29;20048;-52
2023/01/30 09:34:42;;;;;;;8.68;2.90;;;8.10;99.90;;;8.16;100.00;101152.75;5105205;29;20043;-54
2023/01/30 09:37:14;;;;;;;7.03;2.50;;;8.20;99.90;;;8.39;100.00;101140.91;5104536;29;20044;-53
2023/01/30 09:39:46;;;;;;;8.40;2.45;;;8.50;99.90;;;8.43;100.00;101140.25;5104780;29;20051;-53
2023/01/30 09:42:41;;;;;;;7.72;2.17;;;8.50;99.90;;;8.48;100.00;101135.31;5104544;29;20055;-52
2023/01/30 09:45:30;;;;;;;6.35;2.08;;;8.50;99.90;;;8.52;100.00;101145.00;5104690;29;20071;-52
2023/01/30 09:48:14;;;;;;;9.77;2.10;;;8.60;99.90;;;8.83;100.00;101140.47;5115332;28;20035;-53
2023/01/30 09:51:11;;;;;;;9.38;2.65;;;8.90;99.90;;;9.10;100.00;101155.56;5124258;29;20047;-51
2023/01/30 09:54:15;;;;;;;5.07;1.85;;;9.10;99.90;;;9.06;100.00;101138.91;5124086;29;20051;-53
2023/01/30 09:56:52;;;;;;;7.20;1.88;;;9.10;99.90;;;9.04;100.00;101144.88;5122215;29;20047;-53
2023/01/30 09:59:31;;;;;;;9.25;1.83;;;9.10;99.90;;;9.02;100.00;101157.81;5122354;28;20055;-53
2023/01/30 10:02:24;;;;;;;7.68;1.60;;;9.10;99.90;;;9.11;100.00;101162.56;5124416;29;20048;-54
2023/01/30 10:04:58;;;;;;;9.70;1.98;;;9.20;99.90;;;9.20;100.00;101163.00;5124443;28;20436;-53
2023/01/30 10:07:51;;;;;;;8.70;1.90;;;9.20;99.90;;;9.28;100.00;101161.63;5124110;28;20408;-53
2023/01/30 10:10:41;;;;;;;9.45;1.83;;;9.30;99.90;;;9.16;100.00;101155.84;5124433;29;20055;-53
2023/01/30 10:13:44;;;;;;;4.80;1.65;;;9.20;99.90;;;9.08;100.00;101159.81;5124193;29;20047;-52
2023/01/30 10:16:21;;;;;;;6.65;1.63;;;9.10;99.90;;;9.12;100.00;101164.31;5123875;29;20043;-54
2023/01/30 10:19:14;;;;;;;9.90;1.77;;;9.10;99.90;;;9.25;100.00;101171.88;5123883;28;20047;-54
2023/01/30 10:21:54;;;;;;;5.40;1.75;;;9.20;99.90;;;9.20;100.00;101174.28;5123837;29;20107;-53
2023/01/30 10:24:45;;;;;;;4.47;1.80;;;9.20;99.90;;;9.10;100.00;101169.47;5123912;29;20047;-54
2023/01/30 10:27:20;;;;;;;7.15;1.98;;;9.20;99.90;;;9.07;100.00;101168.44;5123491;28;20051;-52
2023/01/30 10:29:55;;;;;;;9.45;1.98;;;9.20;99.90;;;9.07;100.00;101160.66;5123894;29;20056;-53
2023/01/30 10:32:33;;;;;;;8.25;2.30;;;9.10;99.90;;;9.21;100.00;101164.78;5123936;29;20050;-53
2023/01/30 10:35:16;;;;;;;7.90;2.08;;;9.20;99.90;;;9.19;100.00;101169.00;5123921;29;20059;-53
2023/01/30 10:37:58;;;;;;;8.35;1.75;;;9.20;99.90;;;9.18;100.00;101177.63;5123609;28;20047;-53
2023/01/30 10:40:36;;;;;;;7.78;2.05;;;9.20;99.90;;;9.14;100.00;101178.31;5123780;28;20070;-53
2023/01/30 10:43:17;;;;;;;9.23;2.05;;;9.20;99.90;;;9.00;100.00;101185.47;5123982;29;20053;-54
2023/01/30 10:46:03;;;;;;;8.60;1.90;;;9.10;99.90;;;8.92;100.00;101158.19;5124075;29;20051;-54
2023/01/30 10:48:55;;;;;;;9.82;2.20;;;9.00;99.90;;;8.70;100.00;101177.09;5123774;28;20062;-53
2023/01/30 10:51:46;;;;;;;8.85;1.55;;;8.90;99.90;;;8.59;100.00;101171.34;5124150;29;20051;-53
2023/01/30 10:54:24;;;;;;;6.00;1.95;;;8.70;99.90;;;8.48;100.00;101180.34;5123998;29;20109;-53
2023/01/30 10:57:06;;;;;;;6.82;1.75;;;8.70;99.90;;;8.51;100.00;101193.50;5123829;29;20047;-54
2023/01/30 10:59:50;;;;;;;5.82;1.88;;;8.60;99.90;;;8.52;100.00;101189.19;5123535;28;20051;-53
2023/01/30 11:02:26;;;;;;;6.35;1.65;;;8.60;99.90;;;8.48;100.00;101192.47;5123478;29;20058;-52
2023/01/30 11:05:01;;;;;;;5.47;2.15;;;8.60;99.90;;;8.42;100.00;101200.84;5123647;29;20453;-53